Time;durP1;ratioP1;P1;durP2;ratioP2;P2;SDS_P1;SDS_P2;PMS_P1;PMS_P2;Temp;Humidity;BMP_temperature;BMP_pressure;BME280_temperature;BME280_humidity;BME280_pressure;Samples;Min_cycle;Max_cycle;Signal;HPM_P1;HPM_P2
2022/08/08 00:00:16;;;;;;;10.93;7.50;;;12.80;1.00;;;;;;5028448;28;20827;-44
2022/08/08 00:03:00;;;;;;;10.50;7.60;;;12.80;1.00;;;;;;5030654;28;20524;-43
2022/08/08 00:05:40;;;;;;;9.70;6.53;;;12.70;1.00;;;;;;5031760;28;20452;-44
2022/08/08 00:08:32;;;;;;;9.37;7.00;;;12.70;1.00;;;;;;5014176;28;21185;-43
2022/08/08 00:11:18;;;;;;;9.77;7.17;;;12.60;1.00;;;;;;5031727;28;20422;-45
2022/08/08 00:13:56;;;;;;;12.80;7.37;;;12.60;1.00;;;;;;5013248;28;20465;-51
2022/08/08 00:16:34;;;;;;;8.30;7.03;;;12.70;1.00;;;;;;5030377;28;21164;-51
2022/08/08 00:19:21;;;;;;;9.33;6.40;;;12.70;1.00;;;;;;5043884;28;20424;-50
2022/08/08 00:22:09;;;;;;;9.37;7.20;;;12.70;1.00;;;;;;5031740;28;20491;-49
2022/08/08 00:24:41;;;;;;;10.87;7.50;;;12.70;1.00;;;;;;5030380;28;20469;-51
2022/08/08 00:27:11;;;;;;;9.00;6.80;;;12.60;1.00;;;;;;5030770;28;20440;-50
2022/08/08 00:29:56;;;;;;;11.07;7.60;;;12.60;1.00;;;;;;5031050;28;20446;-50
2022/08/08 00:32:28;;;;;;;13.10;7.03;;;12.60;1.00;;;;;;5031195;28;20445;-51
2022/08/08 00:35:14;;;;;;;8.23;6.77;;;12.50;1.00;;;;;;5031800;28;20445;-51
2022/08/08 00:38:08;;;;;;;7.80;6.67;;;12.60;1.00;;;;;;5030415;28;20442;-49
2022/08/08 00:40:54;;;;;;;8.83;6.87;;;12.60;1.00;;;;;;5030872;28;20425;-48
2022/08/08 00:44:00;;;;;;;8.17;6.93;;;12.50;1.00;;;;;;5031069;28;20441;-50
2022/08/08 00:46:47;;;;;;;8.93;6.70;;;12.40;17.70;;;;;;5030226;28;20426;-50
2022/08/08 00:49:19;;;;;;;10.40;8.03;;;12.40;41.30;;;;;;5025929;28;20465;-50
2022/08/08 00:51:50;;;;;;;10.03;7.10;;;12.30;50.90;;;;;;5031091;28;20422;-51
2022/08/08 00:54:34;;;;;;;10.93;7.63;;;12.30;68.70;;;;;;5029612;28;20983;-50
2022/08/08 00:57:27;;;;;;;8.97;7.30;;;12.30;96.60;;;;;;5028384;28;20433;-42
2022/08/08 01:00:02;;;;;;;9.50;7.33;;;12.30;91.00;;;;;;5030533;28;20512;-44
2022/08/08 01:02:49;;;;;;;10.10;7.77;;;12.30;82.40;;;;;;5030245;28;20482;-43
2022/08/08 01:05:49;;;;;;;10.60;7.20;;;12.30;99.90;;;;;;4993774;28;21188;-44
2022/08/08 01:08:36;;;;;;;9.70;7.77;;;12.30;99.90;;;;;;5026324;28;20523;-43
2022/08/08 01:11:20;;;;;;;7.80;6.47;;;12.20;99.90;;;;;;5030791;28;20444;-45
2022/08/08 01:14:00;;;;;;;13.43;9.13;;;12.20;99.90;;;;;;5030978;28;20983;-43
2022/08/08 01:17:03;;;;;;;12.67;8.37;;;12.20;99.90;;;;;;5028589;28;20525;-43
2022/08/08 01:19:47;;;;;;;12.30;8.13;;;12.20;99.90;;;;;;5030608;28;20637;-44
2022/08/08 01:22:43;;;;;;;12.93;8.00;;;12.20;99.90;;;;;;5030600;28;20420;-43
2022/08/08 01:25:40;;;;;;;10.23;6.70;;;12.20;99.90;;;;;;5030661;28;20431;-42
2022/08/08 01:28:20;;;;;;;11.13;8.00;;;12.20;99.90;;;;;;5028759;28;20896;-44
2022/08/08 01:31:16;;;;;;;12.63;7.77;;;12.20;99.90;;;;;;5030635;28;20428;-44
2022/08/08 01:34:03;;;;;;;10.60;7.70;;;12.20;1.00;;;;;;5030300;28;20556;-43
2022/08/08 01:37:00;;;;;;;10.53;7.03;;;12.30;99.90;;;;;;5029003;28;21017;-43
2022/08/08 01:39:41;;;;;;;9.57;7.70;;;12.30;99.90;;;;;;5022408;28;20970;-44
2022/08/08 01:42:31;;;;;;;8.00;6.23;;;12.20;99.90;;;;;;5030382;28;20425;-44
2022/08/08 01:45:08;;;;;;;10.27;6.87;;;12.20;99.90;;;;;;5032010;28;20904;-43
2022/08/08 01:48:01;;;;;;;10.90;6.63;;;12.10;99.90;;;;;;5029325;28;20436;-43
2022/08/08 01:50:50;;;;;;;9.83;7.23;;;12.10;99.90;;;;;;5010630;28;20419;-44
2022/08/08 01:53:42;;;;;;;10.80;6.90;;;12.10;99.90;;;;;;5028591;28;20480;-45
2022/08/08 01:56:33;;;;;;;9.77;7.20;;;12.10;99.90;;;;;;5025539;28;20438;-44
2022/08/08 01:59:22;;;;;;;11.73;6.87;;;12.10;99.90;;;;;;5031728;28;20939;-44
2022/08/08 02:01:48;;;;;;;8.30;6.27;;;12.00;99.90;;;;;;5041267;28;20441;-44
2022/08/08 02:04:42;;;;;;;10.10;7.23;;;12.00;99.90;;;;;;5040461;28;20427;-43
2022/08/08 02:07:17;;;;;;;10.10;7.23;;;12.00;99.90;;;;;;5014236;28;20760;-43
2022/08/08 02:10:28;;;;;;;8.87;7.00;;;11.90;99.90;;;;;;5030735;28;20480;-43
2022/08/08 02:13:20;;;;;;;11.00;7.30;;;11.90;99.90;;;;;;4983704;28;20415;-44
2022/08/08 02:16:02;;;;;;;8.20;6.83;;;11.90;99.90;;;;;;4983100;28;20488;-44
2022/08/08 02:18:39;;;;;;;9.33;6.40;;;11.80;99.90;;;;;;5017951;28;20463;-44
2022/08/08 02:24:28;;;;;;;8.83;6.80;;;11.80;99.90;;;;;;5023122;28;20507;-44
2022/08/08 02:27:00;;;;;;;12.70;8.23;;;11.70;99.90;;;;;;5033014;28;20413;-44
2022/08/08 02:29:51;;;;;;;11.30;7.80;;;11.70;1.00;;;;;;5032296;28;20468;-44
2022/08/08 02:32:41;;;;;;;11.93;8.17;;;11.70;1.00;;;;;;5031624;28;20414;-44
2022/08/08 02:35:31;;;;;;;10.07;7.90;;;11.70;1.00;;;;;;5031643;28;20432;-44
2022/08/08 02:38:08;;;;;;;10.17;7.60;;;11.70;22.80;;;;;;5033394;28;20441;-44
2022/08/08 02:41:02;;;;;;;11.60;7.90;;;11.70;1.00;;;;;;5032374;28;20440;-43
2022/08/08 02:43:46;;;;;;;11.77;7.53;;;11.70;1.00;;;;;;5032992;28;20450;-44
2022/08/08 02:46:42;;;;;;;10.50;6.77;;;11.70;1.00;;;;;;5046639;28;20491;-43
2022/08/08 02:49:32;;;;;;;10.23;7.00;;;11.70;1.00;;;;;;5032861;28;20472;-44
2022/08/08 02:52:32;;;;;;;8.67;6.80;;;11.70;1.00;;;;;;5032865;28;20446;-44
2022/08/08 02:55:12;;;;;;;11.53;8.00;;;11.60;1.00;;;;;;5032667;28;20437;-44
2022/08/08 02:58:21;;;;;;;10.70;7.43;;;11.60;46.50;;;;;;5032697;28;20940;-44
2022/08/08 03:00:49;;;;;;;10.57;7.67;;;11.60;83.20;;;;;;5022415;28;20473;-44
2022/08/08 03:03:43;;;;;;;13.03;7.67;;;11.60;99.90;;;;;;5030859;28;20430;-43
2022/08/08 03:06:28;;;;;;;11.03;8.13;;;11.60;99.90;;;;;;5014925;28;20935;-44
2022/08/08 03:08:59;;;;;;;9.93;7.37;;;11.60;99.90;;;;;;5031253;28;20472;-44
2022/08/08 03:11:33;;;;;;;9.67;7.80;;;11.60;99.90;;;;;;5031221;28;20915;-44
2022/08/08 03:14:36;;;;;;;11.20;8.03;;;11.50;99.90;;;;;;5032307;28;20439;-44
2022/08/08 03:17:25;;;;;;;12.00;7.57;;;11.50;99.90;;;;;;5031885;28;20422;-44
2022/08/08 03:20:06;;;;;;;11.53;8.60;;;11.50;99.90;;;;;;4997453;28;20528;-44
2022/08/08 03:22:32;;;;;;;13.80;7.90;;;11.50;99.90;;;;;;5032310;28;20418;-44
2022/08/08 03:25:03;;;;;;;9.20;7.53;;;11.60;99.90;;;;;;5032214;28;20477;-44
2022/08/08 03:27:44;;;;;;;8.83;7.80;;;11.60;99.90;;;;;;5032081;28;20194;-44
2022/08/08 03:30:13;;;;;;;10.10;8.03;;;11.60;99.90;;;;;;5031362;28;20524;-44
2022/08/08 03:35:26;;;;;;;14.27;8.40;;;11.70;1.00;;;;;;5031537;28;21026;-43
2022/08/08 03:37:52;;;;;;;10.23;7.63;;;11.70;1.00;;;;;;5032330;28;20413;-44
2022/08/08 03:40:19;;;;;;;10.90;8.17;;;11.70;1.00;;;;;;5031035;28;20440;-45
2022/08/08 03:42:46;;;;;;;11.60;8.47;;;11.80;1.00;;;;;;5031870;28;20778;-44
2022/08/08 03:45:19;;;;;;;12.60;9.27;;;11.80;1.00;;;;;;5033097;28;20453;-44
2022/08/08 03:47:55;;;;;;;13.23;8.40;;;11.90;1.00;;;;;;5039698;28;20479;-43
2022/08/08 03:50:22;;;;;;;10.30;7.73;;;12.00;1.00;;;;;;5019158;28;20437;-43
2022/08/08 03:52:48;;;;;;;11.87;8.53;;;12.00;62.20;;;;;;5031412;28;20467;-43
2022/08/08 03:55:16;;;;;;;13.57;8.57;;;12.10;39.80;;;;;;5031468;28;20410;-43
2022/08/08 03:57:47;;;;;;;12.27;9.43;;;12.10;7.10;;;;;;5031690;28;20186;-43
2022/08/08 04:00:15;;;;;;;12.93;8.57;;;12.20;45.10;;;;;;5028786;28;20429;-43
2022/08/08 04:02:42;;;;;;;12.93;9.43;;;12.30;54.50;;;;;;5017847;28;20515;-43
2022/08/08 04:05:08;;;;;;;15.80;8.87;;;12.30;1.00;;;;;;5029124;28;20437;-43
2022/08/08 04:07:43;;;;;;;11.33;8.20;;;12.30;1.00;;;;;;5031597;28;20426;-43
2022/08/08 04:10:09;;;;;;;12.77;9.57;;;12.40;1.00;;;;;;5031390;28;20428;-43
2022/08/08 04:12:35;;;;;;;15.20;8.20;;;12.50;1.00;;;;;;5031331;28;20787;-43
2022/08/08 04:15:02;;;;;;;16.50;9.47;;;12.50;1.00;;;;;;5030437;28;20253;-43
2022/08/08 04:17:28;;;;;;;13.80;9.47;;;12.50;1.00;;;;;;5029718;28;20438;-43
2022/08/08 04:19:55;;;;;;;13.17;9.57;;;12.60;1.00;;;;;;5030289;28;20440;-43
2022/08/08 04:22:21;;;;;;;22.27;10.20;;;12.60;99.90;;;;;;5030493;28;20187;-43
2022/08/08 04:24:47;;;;;;;16.40;8.63;;;12.60;99.90;;;;;;5029999;28;20433;-43
2022/08/08 04:27:12;;;;;;;15.13;9.53;;;12.70;99.90;;;;;;5031000;28;20813;-43
2022/08/08 04:29:38;;;;;;;14.47;9.30;;;12.80;99.90;;;;;;5030603;28;20214;-43
2022/08/08 04:32:05;;;;;;;12.70;8.37;;;12.80;99.90;;;;;;5030709;28;21049;-43
2022/08/08 04:34:31;;;;;;;13.67;9.30;;;12.90;99.90;;;;;;5030864;28;20175;-43
2022/08/08 04:36:56;;;;;;;17.53;8.00;;;13.00;99.90;;;;;;5030999;28;20509;-43
2022/08/08 04:39:22;;;;;;;18.63;9.13;;;13.10;99.90;;;;;;5047937;28;20182;-43
2022/08/08 04:41:47;;;;;;;11.60;8.77;;;13.20;94.20;;;;;;5004482;28;20230;-43
2022/08/08 04:44:13;;;;;;;15.50;8.57;;;13.20;44.10;;;;;;5023094;28;20183;-43
2022/08/08 04:46:39;;;;;;;10.33;7.70;;;13.30;12.20;;;;;;5029842;28;20191;-43
2022/08/08 04:49:04;;;;;;;14.03;8.83;;;13.40;4.90;;;;;;5030963;28;20557;-43
2022/08/08 04:51:30;;;;;;;10.50;8.60;;;13.50;1.00;;;;;;5029483;28;20237;-43
2022/08/08 04:53:56;;;;;;;11.70;8.60;;;13.60;1.00;;;;;;5030769;28;20242;-43
2022/08/08 04:56:21;;;;;;;11.93;8.13;;;13.70;1.00;;;;;;5029730;28;20542;-43
2022/08/08 04:58:47;;;;;;;10.80;8.00;;;13.80;1.00;;;;;;5030475;28;20187;-43
2022/08/08 05:01:12;;;;;;;12.27;8.77;;;13.90;1.00;;;;;;5030482;28;20268;-43
2022/08/08 05:03:38;;;;;;;10.03;7.23;;;14.00;1.00;;;;;;5029302;28;20229;-43
2022/08/08 05:06:04;;;;;;;10.90;7.90;;;14.10;1.00;;;;;;5029035;28;20194;-43
2022/08/08 05:08:30;;;;;;;11.03;8.00;;;14.20;1.00;;;;;;5029648;28;20209;-43
2022/08/08 05:10:55;;;;;;;15.60;8.00;;;14.30;99.90;;;;;;5029770;28;20454;-43
2022/08/08 05:13:21;;;;;;;10.83;7.90;;;14.40;99.90;;;;;;5030987;28;20227;-44
2022/08/08 05:15:47;;;;;;;12.83;8.03;;;14.50;99.90;;;;;;5029805;28;20178;-44
2022/08/08 05:18:13;;;;;;;11.43;7.40;;;14.50;99.90;;;;;;5012746;28;20191;-44
2022/08/08 05:20:38;;;;;;;14.03;8.57;;;14.70;99.90;;;;;;5030337;28;20183;-44
2022/08/08 05:23:04;;;;;;;13.13;8.13;;;14.80;93.50;;;;;;5030666;28;20270;-44
2022/08/08 05:25:30;;;;;;;11.80;7.27;;;14.90;38.70;;;;;;5029495;28;20875;-44
2022/08/08 05:27:56;;;;;;;11.33;7.00;;;15.00;7.00;;;;;;5029219;28;20195;-43
2022/08/08 05:30:22;;;;;;;12.50;6.37;;;15.00;1.00;;;;;;5030100;28;20516;-45
2022/08/08 05:32:47;;;;;;;9.77;7.13;;;15.10;1.00;;;;;;5031359;28;20696;-44
2022/08/08 05:35:13;;;;;;;13.67;7.70;;;15.10;1.00;;;;;;5032820;28;20206;-44
2022/08/08 05:37:46;;;;;;;8.97;6.73;;;15.10;1.00;;;;;;5020169;28;20253;-44
2022/08/08 05:40:12;;;;;;;9.50;6.87;;;15.10;1.00;;;;;;5033692;28;20194;-44
2022/08/08 05:42:48;;;;;;;9.67;6.23;;;15.10;1.00;;;;;;5034042;28;21109;-44
2022/08/08 05:45:14;;;;;;;9.30;6.37;;;15.10;1.00;;;;;;5034228;28;20520;-44
2022/08/08 05:47:40;;;;;;;8.40;5.83;;;15.10;1.00;;;;;;5033548;28;21232;-45
2022/08/08 05:50:07;;;;;;;8.50;6.90;;;15.20;1.00;;;;;;5016022;28;20194;-45
2022/08/08 05:52:37;;;;;;;7.23;5.60;;;15.20;1.00;;;;;;5034228;28;20955;-45
2022/08/08 05:55:08;;;;;;;8.53;5.93;;;15.10;1.00;;;;;;5032273;28;20453;-45
2022/08/08 05:57:35;;;;;;;8.27;6.20;;;15.20;1.00;;;;;;5033391;28;20445;-45
2022/08/08 06:00:07;;;;;;;14.37;5.80;;;15.40;1.00;;;;;;5032755;28;20443;-45
2022/08/08 06:05:19;;;;;;;16.13;6.00;;;15.80;1.00;;;;;;5040710;28;20509;-45
2022/08/08 06:07:47;;;;;;;7.00;5.80;;;16.10;1.00;;;;;;5039494;28;20804;-45
2022/08/08 06:10:14;;;;;;;10.27;5.43;;;16.40;1.00;;;;;;5033532;28;20520;-45
2022/08/08 06:12:42;;;;;;;9.50;6.10;;;16.80;1.00;;;;;;5033623;28;20438;-44
2022/08/08 06:15:09;;;;;;;7.17;4.73;;;17.10;1.00;;;;;;5033862;28;20422;-44
2022/08/08 06:17:37;;;;;;;7.37;4.57;;;17.40;1.00;;;;;;5031961;28;20764;-48
2022/08/08 06:20:06;;;;;;;7.13;4.67;;;17.70;1.00;;;;;;5032992;28;20743;-44
2022/08/08 06:22:32;;;;;;;8.03;5.50;;;17.90;99.90;;;;;;5033647;28;20413;-44
2022/08/08 06:24:58;;;;;;;5.20;4.70;;;18.10;99.90;;;;;;5031159;28;20448;-44
2022/08/08 06:27:47;;;;;;;14.57;5.90;;;18.30;99.90;;;;;;5033554;28;20170;-45
2022/08/08 06:30:14;;;;;;;7.40;4.90;;;18.60;99.90;;;;;;5033677;28;20649;-45
2022/08/08 06:32:46;;;;;;;15.07;5.40;;;18.80;99.90;;;;;;5033365;28;20503;-44
2022/08/08 06:35:14;;;;;;;6.67;4.80;;;19.00;99.90;;;;;;5032122;28;20524;-43
2022/08/08 06:37:51;;;;;;;10.67;5.30;;;19.20;99.90;;;;;;5032626;28;20970;-44
2022/08/08 06:40:19;;;;;;;6.37;5.00;;;19.40;99.90;;;;;;5033161;28;20422;-44
2022/08/08 06:42:55;;;;;;;6.13;4.80;;;19.70;99.90;;;;;;5033153;28;20422;-44
2022/08/08 06:45:22;;;;;;;5.00;4.50;;;19.90;99.90;;;;;;5032170;28;20516;-44
2022/08/08 06:47:49;;;;;;;6.93;4.53;;;19.90;99.90;;;;;;5032960;28;20429;-44
2022/08/08 06:50:15;;;;;;;6.47;4.40;;;19.90;99.90;;;;;;5033060;28;20808;-45
2022/08/08 06:52:41;;;;;;;6.20;4.93;;;19.80;99.90;;;;;;5031234;28;20469;-45
2022/08/08 06:55:07;;;;;;;11.20;5.00;;;19.90;99.90;;;;;;5033897;28;20226;-45
2022/08/08 06:57:34;;;;;;;8.90;4.77;;;19.90;99.90;;;;;;5043739;28;20520;-45
2022/08/08 07:00:03;;;;;;;7.23;4.33;;;20.00;99.90;;;;;;5033144;28;20487;-46
2022/08/08 07:02:32;;;;;;;4.93;4.43;;;20.10;99.90;;;;;;5030585;28;20441;-45
2022/08/08 07:05:03;;;;;;;8.63;5.40;;;20.20;99.90;;;;;;5025670;28;20445;-45
2022/08/08 07:07:51;;;;;;;8.17;4.53;;;20.30;99.90;;;;;;5032035;28;20456;-45
2022/08/08 07:10:19;;;;;;;5.40;4.53;;;20.20;99.90;;;;;;5030262;28;20449;-44
2022/08/08 07:13:05;;;;;;;17.47;5.00;;;20.10;99.90;;;;;;5032253;28;20430;-44
2022/08/08 07:15:45;;;;;;;9.33;5.70;;;19.80;99.90;;;;;;5032187;28;20433;-44
2022/08/08 07:18:19;;;;;;;6.57;5.77;;;19.70;99.90;;;;;;5022099;28;20444;-44
2022/08/08 07:20:51;;;;;;;7.33;5.40;;;20.30;99.90;;;;;;5029210;28;20468;-43
2022/08/08 07:23:47;;;;;;;7.97;6.20;;;20.70;99.90;;;;;;5031465;28;20442;-44
2022/08/08 07:26:15;;;;;;;9.10;5.50;;;20.70;99.90;;;;;;5029086;28;20440;-49
2022/08/08 07:28:42;;;;;;;9.43;5.90;;;20.60;99.90;;;;;;5031789;28;20461;-49
2022/08/08 07:31:09;;;;;;;8.70;6.10;;;20.50;99.90;;;;;;5032055;28;20581;-49
2022/08/08 07:33:36;;;;;;;7.20;5.40;;;20.40;99.90;;;;;;5030797;28;20510;-44
2022/08/08 07:36:04;;;;;;;9.07;5.27;;;20.20;99.90;;;;;;5031717;28;20410;-44
2022/08/08 07:38:31;;;;;;;8.17;5.50;;;20.20;99.90;;;;;;5029955;28;20445;-44
2022/08/08 07:40:57;;;;;;;8.17;5.43;;;20.40;99.90;;;;;;5031910;28;20425;-44
2022/08/08 07:43:24;;;;;;;9.30;5.40;;;21.00;99.90;;;;;;5029700;28;20449;-44
2022/08/08 07:45:50;;;;;;;7.13;4.70;;;21.90;99.90;;;;;;5029778;28;20582;-48
2022/08/08 07:48:15;;;;;;;5.67;4.80;;;22.90;99.90;;;;;;5030421;28;21051;-48
2022/08/08 07:50:43;;;;;;;10.80;4.50;;;23.50;99.90;;;;;;5030203;28;20217;-47
2022/08/08 07:53:38;;;;;;;6.50;4.20;;;23.60;99.90;;;;;;5044826;28;20752;-48
2022/08/08 07:56:08;;;;;;;5.33;4.13;;;23.70;99.90;;;;;;5023758;28;20941;-47
2022/08/08 07:58:42;;;;;;;13.73;3.97;;;23.80;99.90;;;;;;5031426;28;20418;-47
2022/08/08 08:01:14;;;;;;;7.10;3.97;;;23.60;99.90;;;;;;5030390;28;20453;-48
2022/08/08 08:03:49;;;;;;;5.30;3.43;;;23.20;99.90;;;;;;5029782;28;20939;-48
2022/08/08 08:06:16;;;;;;;11.00;3.77;;;22.90;99.90;;;;;;5023998;28;21074;-48
2022/08/08 08:08:51;;;;;;;5.00;3.50;;;22.70;99.90;;;;;;5028607;28;20472;-49
2022/08/08 08:11:20;;;;;;;3.90;3.47;;;22.50;99.90;;;;;;5030241;28;20433;-48
2022/08/08 08:14:23;;;;;;;10.53;4.67;;;22.50;99.90;;;;;;5029833;28;20811;-48
2022/08/08 08:16:50;;;;;;;5.37;3.63;;;22.50;99.90;;;;;;4989450;28;20453;-48
2022/08/08 08:19:16;;;;;;;5.90;3.33;;;22.40;99.90;;;;;;5029304;28;21185;-48
2022/08/08 08:21:44;;;;;;;5.13;3.47;;;22.60;99.90;;;;;;5028105;28;20468;-48
2022/08/08 08:24:10;;;;;;;4.73;3.23;;;22.90;99.90;;;;;;5024642;28;20507;-48
2022/08/08 08:26:36;;;;;;;4.77;2.53;;;23.10;99.90;;;;;;5029729;28;21318;-43
2022/08/08 08:29:03;;;;;;;11.57;2.73;;;23.40;99.90;;;;;;5029176;28;20472;-44
2022/08/08 08:31:29;;;;;;;3.27;2.60;;;23.70;99.90;;;;;;5030110;28;20659;-43
2022/08/08 08:33:55;;;;;;;6.20;2.37;;;24.10;99.90;;;;;;5030296;28;20503;-45
2022/08/08 08:36:23;;;;;;;3.37;2.17;;;24.00;99.90;;;;;;5028456;28;20941;-45
2022/08/08 08:38:50;;;;;;;5.33;2.53;;;24.30;99.90;;;;;;5031249;28;20855;-44
2022/08/08 08:41:17;;;;;;;3.03;2.73;;;24.80;99.90;;;;;;5031047;28;20425;-45
2022/08/08 08:43:45;;;;;;;5.73;2.63;;;25.30;99.90;;;;;;5030729;28;20414;-44
2022/08/08 08:46:12;;;;;;;2.93;1.80;;;25.70;99.90;;;;;;5030734;28;20521;-44
2022/08/08 08:48:40;;;;;;;3.70;1.90;;;26.10;99.90;;;;;;5030809;28;20825;-45
2022/08/08 08:51:10;;;;;;;3.77;2.10;;;26.20;99.90;;;;;;5032122;28;20536;-45
2022/08/08 08:53:42;;;;;;;4.23;2.17;;;26.60;99.90;;;;;;5030829;28;20486;-44
2022/08/08 08:56:12;;;;;;;3.47;2.30;;;27.10;99.90;;;;;;5030895;28;20888;-44
2022/08/08 08:58:43;;;;;;;3.90;2.50;;;27.40;99.90;;;;;;5030161;28;20532;-44
2022/08/08 09:01:10;;;;;;;3.63;2.37;;;27.50;99.90;;;;;;5030853;28;20480;-44
2022/08/08 09:03:39;;;;;;;4.10;2.37;;;27.70;99.90;;;;;;5030705;28;20433;-44
2022/08/08 09:06:08;;;;;;;4.20;2.10;;;27.50;99.90;;;;;;5030652;28;20410;-45
2022/08/08 09:08:35;;;;;;;2.10;1.90;;;27.20;99.90;;;;;;5032568;28;20453;-45
2022/08/08 09:11:01;;;;;;;3.67;2.53;;;27.10;99.90;;;;;;5034167;28;20977;-43
2022/08/08 09:13:28;;;;;;;5.63;2.40;;;26.60;99.90;;;;;;5037291;28;20429;-44
2022/08/08 09:15:55;;;;;;;3.17;2.30;;;25.90;99.90;;;;;;5034759;28;20504;-44
2022/08/08 09:18:22;;;;;;;4.57;2.80;;;25.50;99.90;;;;;;5034795;28;20549;-44
2022/08/08 09:20:50;;;;;;;2.50;2.30;;;25.00;99.90;;;;;;5042445;28;20887;-44
2022/08/08 09:23:16;;;;;;;5.97;2.77;;;24.60;99.90;;;;;;5054374;28;20447;-45
2022/08/08 09:25:49;;;;;;;5.60;2.63;;;24.40;99.90;;;;;;5054506;28;20444;-45
2022/08/08 09:28:15;;;;;;;5.90;2.30;;;24.00;99.90;;;;;;5052844;28;20816;-44
2022/08/08 09:30:43;;;;;;;4.80;2.97;;;23.80;99.90;;;;;;5034322;28;20950;-44
2022/08/08 09:33:10;;;;;;;8.17;2.50;;;23.70;99.90;;;;;;5034531;28;20875;-45
2022/08/08 09:35:38;;;;;;;6.40;2.50;;;23.80;99.90;;;;;;5034354;28;20429;-44
2022/08/08 09:38:04;;;;;;;4.43;2.47;;;23.70;99.90;;;;;;5033646;28;20942;-44
2022/08/08 09:40:33;;;;;;;7.30;2.87;;;23.60;99.90;;;;;;5034409;28;20887;-44
2022/08/08 09:43:02;;;;;;;4.70;2.67;;;23.60;99.90;;;;;;5034173;28;20424;-45
2022/08/08 09:45:35;;;;;;;4.30;2.50;;;23.70;99.90;;;;;;5035876;28;20440;-43
2022/08/08 09:48:03;;;;;;;2.87;2.43;;;23.80;99.90;;;;;;5034011;28;20888;-44
2022/08/08 09:50:31;;;;;;;6.40;3.13;;;24.10;99.90;;;;;;5034368;28;20439;-45
2022/08/08 09:53:00;;;;;;;4.73;2.33;;;24.30;99.90;;;;;;5028810;28;20946;-44
2022/08/08 09:55:29;;;;;;;3.63;2.33;;;24.40;99.90;;;;;;5054087;28;20424;-44
2022/08/08 09:58:05;;;;;;;4.90;2.23;;;24.40;99.90;;;;;;5053752;28;20478;-45
2022/08/08 10:00:36;;;;;;;7.33;3.00;;;24.60;99.90;;;;;;5053732;28;20420;-44
2022/08/08 10:03:03;;;;;;;9.90;3.03;;;24.90;99.90;;;;;;5038450;28;20477;-45
2022/08/08 10:05:34;;;;;;;5.33;3.13;;;24.90;99.90;;;;;;5033719;28;20927;-44
2022/08/08 10:08:00;;;;;;;3.30;2.50;;;24.80;99.90;;;;;;5033507;28;20417;-44
2022/08/08 10:10:36;;;;;;;7.87;3.10;;;24.70;99.90;;;;;;5033746;28;20445;-44
2022/08/08 10:13:18;;;;;;;4.57;2.90;;;24.80;99.90;;;;;;5033944;28;20472;-45
2022/08/08 10:15:52;;;;;;;3.00;2.30;;;24.90;99.90;;;;;;5032931;28;20962;-44
2022/08/08 10:18:27;;;;;;;3.93;2.50;;;25.10;99.90;;;;;;5033746;28;20397;-43
2022/08/08 10:21:01;;;;;;;4.90;2.80;;;25.30;99.90;;;;;;5034297;28;20469;-44
2022/08/08 10:23:49;;;;;;;7.90;2.67;;;25.20;99.90;;;;;;5028785;28;20598;-45
2022/08/08 10:26:31;;;;;;;5.90;2.87;;;25.10;99.90;;;;;;5031860;28;20789;-44
2022/08/08 10:29:05;;;;;;;6.10;2.80;;;24.80;99.90;;;;;;5033323;28;20476;-44
2022/08/08 10:34:20;;;;;;;7.57;2.50;;;24.60;99.90;;;;;;5033587;28;20417;-45
2022/08/08 10:36:47;;;;;;;3.97;2.80;;;24.70;99.90;;;;;;5033159;28;20421;-44
2022/08/08 10:39:21;;;;;;;5.57;2.60;;;24.80;99.90;;;;;;5033210;28;20418;-45
2022/08/08 10:42:01;;;;;;;6.33;2.70;;;24.80;99.90;;;;;;5033079;28;20417;-44
2022/08/08 10:44:39;;;;;;;2.40;2.20;;;24.90;99.90;;;;;;5033122;28;20425;-44
2022/08/08 10:47:12;;;;;;;4.67;2.10;;;25.20;99.90;;;;;;5033142;28;20424;-44
2022/08/08 10:49:42;;;;;;;3.57;2.70;;;25.40;99.90;;;;;;5032833;28;20449;-42
2022/08/08 10:52:08;;;;;;;5.27;2.60;;;25.40;99.90;;;;;;5031028;28;20445;-44
2022/08/08 10:54:34;;;;;;;7.70;2.37;;;25.80;99.90;;;;;;5031951;28;20566;-43
2022/08/08 10:57:03;;;;;;;4.47;2.40;;;26.00;99.90;;;;;;5003013;28;20278;-43
2022/08/08 10:59:29;;;;;;;7.63;2.83;;;26.30;99.90;;;;;;5013060;28;20189;-45
2022/08/08 11:01:55;;;;;;;4.37;2.70;;;26.50;99.90;;;;;;5031772;28;20817;-43
2022/08/08 11:04:21;;;;;;;4.37;1.97;;;26.50;99.90;;;;;;5031890;28;20451;-44
2022/08/08 11:06:47;;;;;;;5.40;2.60;;;26.50;99.90;;;;;;5030637;28;20249;-43
2022/08/08 11:09:14;;;;;;;2.60;1.83;;;26.30;99.90;;;;;;5032325;28;20458;-45
2022/08/08 11:11:45;;;;;;;5.43;2.40;;;26.30;99.90;;;;;;5032311;28;20207;-50
2022/08/08 11:14:12;;;;;;;2.23;2.03;;;26.40;99.90;;;;;;5032675;28;20760;-50
2022/08/08 11:16:44;;;;;;;4.80;2.40;;;26.60;99.90;;;;;;5029432;28;20859;-49
2022/08/08 11:19:11;;;;;;;4.57;2.27;;;27.00;99.90;;;;;;5029999;28;20477;-49
2022/08/08 11:21:44;;;;;;;6.63;2.27;;;27.10;99.90;;;;;;5029929;28;20442;-50
2022/08/08 11:24:11;;;;;;;4.03;2.10;;;27.10;99.90;;;;;;5032069;28;20428;-49
2022/08/08 11:26:40;;;;;;;3.60;2.43;;;27.20;99.90;;;;;;5032086;28;20436;-49
2022/08/08 11:29:07;;;;;;;5.77;2.20;;;27.10;99.90;;;;;;5031339;28;20477;-48
2022/08/08 11:31:40;;;;;;;3.33;2.60;;;26.90;99.90;;;;;;5030802;28;20440;-49
2022/08/08 11:34:07;;;;;;;6.37;2.20;;;26.70;99.90;;;;;;5031865;28;20445;-48
2022/08/08 11:36:36;;;;;;;7.37;2.40;;;26.50;99.90;;;;;;5031854;28;20433;-48
2022/08/08 11:39:04;;;;;;;3.50;2.27;;;26.40;99.90;;;;;;5030913;28;20441;-49
2022/08/08 11:41:30;;;;;;;5.87;2.70;;;26.20;99.90;;;;;;5031714;28;20885;-48
2022/08/08 11:43:56;;;;;;;4.13;2.10;;;26.30;99.90;;;;;;5031051;28;20438;-48
2022/08/08 11:46:24;;;;;;;3.23;1.70;;;26.50;99.90;;;;;;5030810;28;20225;-48
2022/08/08 11:48:50;;;;;;;2.70;1.93;;;26.90;99.90;;;;;;5029451;28;20461;-49
2022/08/08 11:51:18;;;;;;;4.73;2.23;;;27.10;99.90;;;;;;5024327;28;20423;-48
2022/08/08 11:53:45;;;;;;;4.60;1.93;;;27.00;99.90;;;;;;5011617;28;20477;-50
2022/08/08 11:56:22;;;;;;;2.40;1.90;;;26.90;99.90;;;;;;5029682;28;20450;-48
2022/08/08 11:58:49;;;;;;;3.97;2.30;;;26.70;99.90;;;;;;5031819;28;20768;-49
2022/08/08 12:01:15;;;;;;;5.83;1.90;;;26.60;99.90;;;;;;5028659;28;20434;-43
2022/08/08 12:03:46;;;;;;;3.43;2.07;;;26.30;99.90;;;;;;5030751;28;20462;-43
2022/08/08 12:06:14;;;;;;;3.77;1.87;;;26.20;99.90;;;;;;5029948;28;20994;-44
2022/08/08 12:08:40;;;;;;;6.20;2.50;;;26.40;99.90;;;;;;5031280;28;20465;-45
2022/08/08 12:11:19;;;;;;;6.40;2.40;;;26.70;99.90;;;;;;5030066;28;20438;-44
2022/08/08 12:13:49;;;;;;;2.33;2.10;;;26.90;99.90;;;;;;5030125;28;20437;-45
2022/08/08 12:16:17;;;;;;;5.30;2.97;;;27.50;99.90;;;;;;5030582;28;20442;-45
2022/08/08 12:18:47;;;;;;;2.80;2.10;;;27.80;99.90;;;;;;5031042;28;20433;-45
2022/08/08 12:21:25;;;;;;;4.07;2.00;;;28.40;99.90;;;;;;5028666;28;20485;-45
2022/08/08 12:24:12;;;;;;;3.47;1.97;;;28.50;99.90;;;;;;5029620;28;20524;-45
2022/08/08 12:26:39;;;;;;;4.73;2.33;;;28.60;99.90;;;;;;5008903;28;20488;-43
2022/08/08 12:29:18;;;;;;;3.47;1.83;;;28.70;99.90;;;;;;5026843;28;20457;-43
2022/08/08 12:31:45;;;;;;;3.03;1.90;;;29.50;99.90;;;;;;5026579;28;20931;-43
2022/08/08 12:34:10;;;;;;;3.53;2.03;;;30.60;99.90;;;;;;5024974;28;20442;-43
2022/08/08 12:36:40;;;;;;;6.17;1.90;;;30.60;99.90;;;;;;5013210;28;20507;-43
2022/08/08 12:39:10;;;;;;;1.70;1.60;;;30.30;99.90;;;;;;5027204;28;20585;-43
2022/08/08 12:41:36;;;;;;;4.03;1.83;;;29.40;99.90;;;;;;5028662;28;21289;-43
2022/08/08 12:44:09;;;;;;;3.73;2.00;;;28.30;99.90;;;;;;5028615;28;20525;-43
2022/08/08 12:46:35;;;;;;;2.20;1.73;;;27.70;99.90;;;;;;5030132;28;20432;-43
2022/08/08 12:49:04;;;;;;;3.53;1.93;;;27.20;99.90;;;;;;5029810;28;20480;-43
2022/08/08 12:51:41;;;;;;;6.13;1.90;;;26.90;99.90;;;;;;5037226;28;20496;-45
2022/08/08 12:54:08;;;;;;;4.00;1.60;;;27.50;99.90;;;;;;5028807;28;20583;-43
2022/08/08 12:56:39;;;;;;;1.87;1.57;;;28.30;99.90;;;;;;5029462;28;20881;-43
2022/08/08 12:59:18;;;;;;;2.13;1.47;;;29.10;99.90;;;;;;5030809;28;20416;-44
2022/08/08 13:02:32;;;;;;;2.93;1.63;;;29.80;99.90;;;;;;5029526;28;21048;-43
2022/08/08 13:05:00;;;;;;;9.63;1.83;;;30.90;99.90;;;;;;5024375;28;20488;-43
2022/08/08 13:07:37;;;;;;;4.40;1.87;;;30.90;99.90;;;;;;5029719;28;20433;-43
2022/08/08 13:10:07;;;;;;;1.87;1.50;;;30.40;99.90;;;;;;5028316;28;20546;-43
2022/08/08 13:12:39;;;;;;;3.23;1.47;;;30.20;99.90;;;;;;5026443;28;20453;-43
2022/08/08 13:15:09;;;;;;;2.07;1.80;;;29.70;99.90;;;;;;5029363;28;20468;-44
2022/08/08 13:17:35;;;;;;;5.00;1.53;;;29.20;99.90;;;;;;5029166;28;20943;-42
2022/08/08 13:20:05;;;;;;;3.43;1.53;;;28.80;99.90;;;;;;5029626;28;20457;-43
2022/08/08 13:22:35;;;;;;;2.17;1.40;;;28.20;99.90;;;;;;5030440;28;20414;-42
2022/08/08 13:25:01;;;;;;;4.10;1.67;;;27.70;99.90;;;;;;5030460;28;20413;-43
2022/08/08 13:27:28;;;;;;;2.50;1.60;;;27.20;99.90;;;;;;5028965;28;20449;-43